Portada
METAR-TAF:

METAR-TAF

Aeroports :

Hōfu, Japó

latitud: 34-02N, longitud: 131-33E, altitud: 2 m

Observació

L'informe es va fer fa 3 hores i 38 minuts, a les 17:51 UTC
Vent 6 kt del Est
Temperatura 26°C
Humitat 94%
Pressió 1008 hPa
Visibilitat 10 km o més
Escasses núvols a una alçada de 800 ft
Núvols disperses a una alçada de 4500 ft
Cel ennuvolat

METAR: RJOF 181751Z 09006KT 9999 FEW008 SCT045 BKN/// 26/25 Q1008 RMK 1ST008 3SC045 A2979 WIND EST

Hora: 06:29 (21:29 UTC)


TAF: manca

Observacions i pronòstics meteorològics de més de 4000 aeroports (METAR i TAF).

Les estacions disponibles són els punts grocs i vermells al mapa.

Posi el ratolí al punt desitjat per veure el nom de l'estació.

Feu clic per veure les observacions i els pronòstics meteorològics.

Per canviar el mapa: feu clic els botons verds amb una creu de color negre per apropar; al botó verd amb un guió per allunyar la imatge; o en les fletxes verdes per a mapes adjacents.


METAR-TAF: